Time;durP1;ratioP1;P1;durP2;ratioP2;P2;SDS_P1;SDS_P2;PMS_P1;PMS_P2;Temp;Humidity;BMP_temperature;BMP_pressure;BME280_temperature;BME280_humidity;BME280_pressure;Samples;Min_cycle;Max_cycle;Signal;HPM_P1;HPM_P2
2023/07/31 00:00:29;;;;;;;1.88;0.93;;;;;;;16.23;100.00;99212.53;5023372;28;20549;-83
2023/07/31 00:02:55;;;;;;;3.38;0.90;;;;;;;16.18;100.00;99223.03;5059274;28;20594;-83
2023/07/31 00:05:21;;;;;;;3.10;0.75;;;;;;;16.15;100.00;99221.59;4994982;28;20033;-83
2023/07/31 00:07:47;;;;;;;1.88;0.77;;;;;;;16.12;100.00;99214.03;5026393;28;20034;-83
2023/07/31 00:10:13;;;;;;;2.95;0.85;;;;;;;16.08;100.00;99204.84;4987212;28;20107;-83
2023/07/31 00:12:43;;;;;;;1.55;0.80;;;;;;;16.09;100.00;99196.63;5028194;28;20033;-83
2023/07/31 00:15:09;;;;;;;2.05;0.85;;;;;;;16.04;100.00;99193.75;5024761;28;20557;-83
2023/07/31 00:17:36;;;;;;;4.30;0.90;;;;;;;16.02;100.00;99181.69;5028265;28;20508;-83
2023/07/31 00:20:02;;;;;;;5.75;0.98;;;;;;;16.01;100.00;99182.72;5026601;28;20088;-82
2023/07/31 00:22:29;;;;;;;4.47;0.90;;;;;;;15.99;100.00;99185.56;5011422;28;20052;-82
2023/07/31 00:24:56;;;;;;;3.78;1.00;;;;;;;15.99;100.00;99189.06;4988319;28;20531;-82
2023/07/31 00:27:21;;;;;;;3.15;1.10;;;;;;;16.02;100.00;99182.53;5022839;28;20116;-82
2023/07/31 00:29:47;;;;;;;3.33;0.95;;;;;;;16.04;100.00;99187.63;5005954;28;20052;-82
2023/07/31 00:32:13;;;;;;;3.33;1.00;;;;;;;16.03;100.00;99189.47;5027822;28;20479;-82
2023/07/31 00:34:39;;;;;;;2.50;0.80;;;;;;;16.04;100.00;99185.78;5020188;28;20025;-83
2023/07/31 00:37:05;;;;;;;1.48;0.85;;;;;;;16.07;100.00;99187.22;5016276;28;20087;-83
2023/07/31 00:39:31;;;;;;;2.05;0.80;;;;;;;16.05;100.00;99184.75;5009666;28;20053;-82
2023/07/31 00:41:59;;;;;;;3.05;1.00;;;;;;;16.07;100.00;99179.22;5027767;28;20128;-83
2023/07/31 00:44:25;;;;;;;3.40;0.80;;;;;;;16.07;100.00;99181.88;5011877;28;20033;-82
2023/07/31 00:46:54;;;;;;;3.03;0.73;;;;;;;16.11;100.00;99180.41;5021518;28;20483;-82
2023/07/31 00:49:21;;;;;;;3.38;0.90;;;;;;;16.13;100.00;99175.69;5025395;28;20096;-82
2023/07/31 00:51:49;;;;;;;0.68;0.55;;;;;;;16.12;100.00;99182.03;5010187;28;20049;-82
2023/07/31 00:54:15;;;;;;;2.35;0.60;;;;;;;16.14;100.00;99181.84;5026178;28;20034;-83
2023/07/31 00:56:41;;;;;;;1.55;0.50;;;;;;;16.13;100.00;99183.69;5023596;28;20060;-82
2023/07/31 00:59:07;;;;;;;4.20;0.70;;;;;;;16.16;100.00;99179.78;5012355;28;20472;-83
2023/07/31 01:01:33;;;;;;;1.00;0.60;;;;;;;16.16;100.00;99172.63;5011798;28;20033;-82
2023/07/31 01:03:59;;;;;;;1.75;0.77;;;;;;;16.17;100.00;99170.75;5010606;28;20033;-82
2023/07/31 01:06:31;;;;;;;1.15;0.40;;;;;;;16.17;100.00;99168.91;5008914;28;20151;-83
2023/07/31 01:09:03;;;;;;;2.55;0.73;;;;;;;16.17;100.00;99168.91;5028237;28;20537;-82
2023/07/31 01:11:31;;;;;;;2.67;0.45;;;;;;;16.15;100.00;99173.63;5051706;28;20076;-83
2023/07/31 01:13:57;;;;;;;3.08;0.50;;;;;;;16.15;100.00;99180.81;4999236;28;20038;-83
2023/07/31 01:16:25;;;;;;;3.53;0.60;;;;;;;16.17;100.00;99170.75;5024697;28;20032;-83
2023/07/31 01:18:52;;;;;;;2.10;0.65;;;;;;;16.17;100.00;99184.06;5014137;28;20054;-82
2023/07/31 01:21:36;;;;;;;1.02;0.40;;;;;;;16.17;100.00;99182.22;4996547;28;20033;-83
2023/07/31 01:24:23;;;;;;;1.42;0.43;;;;;;;16.19;100.00;99177.50;5033098;28;20105;-83
2023/07/31 01:27:06;;;;;;;2.35;0.60;;;;;;;16.17;100.00;99178.75;4996975;28;20041;-83
2023/07/31 01:29:43;;;;;;;1.45;0.68;;;;;;;16.15;100.00;99186.16;5025659;28;20519;-82
2023/07/31 01:32:11;;;;;;;1.60;0.60;;;;;;;16.13;100.00;99175.69;5011687;28;20037;-83
2023/07/31 01:34:39;;;;;;;1.92;0.47;;;;;;;16.10;100.00;99178.78;5019704;28;20048;-83
2023/07/31 01:37:05;;;;;;;1.42;0.50;;;;;;;16.06;100.00;99173.06;5010704;28;20487;-83
2023/07/31 01:39:31;;;;;;;1.85;0.47;;;;;;;16.04;100.00;99180.44;5014520;28;20044;-82
2023/07/31 01:41:56;;;;;;;1.17;0.50;;;;;;;16.02;100.00;99182.53;5013802;28;20093;-82
2023/07/31 01:44:22;;;;;;;2.40;0.40;;;;;;;15.97;100.00;99177.78;5049835;28;20026;-82
2023/07/31 01:46:48;;;;;;;0.45;0.20;;;;;;;15.95;100.00;99189.69;5020059;28;20778;-82
2023/07/31 01:49:14;;;;;;;0.88;0.30;;;;;;;15.92;100.00;99176.78;5031008;28;20030;-83
2023/07/31 01:51:40;;;;;;;1.20;0.40;;;;;;;15.90;100.00;99171.66;5020436;28;20110;-82
2023/07/31 01:54:07;;;;;;;2.45;0.30;;;;;;;15.92;100.00;99163.44;5002181;28;20421;-81
2023/07/31 01:56:33;;;;;;;1.05;0.47;;;;;;;15.92;100.00;99158.94;5021139;28;20021;-81
2023/07/31 01:58:59;;;;;;;3.60;0.43;;;;;;;15.96;100.00;99170.81;5012159;28;20045;-82
2023/07/31 02:01:25;;;;;;;3.80;0.30;;;;;;;15.97;100.00;99164.47;5012193;28;20484;-82
2023/07/31 02:03:51;;;;;;;0.98;0.43;;;;;;;15.94;100.00;99167.53;5037107;28;20030;-82
2023/07/31 02:06:16;;;;;;;1.55;0.40;;;;;;;15.94;100.00;99167.53;5023197;28;20083;-82
2023/07/31 02:08:42;;;;;;;0.80;0.30;;;;;;;15.94;100.00;99180.84;5009117;28;20091;-82
2023/07/31 02:11:08;;;;;;;0.47;0.20;;;;;;;15.95;100.00;99177.19;5022971;28;20470;-82
2023/07/31 02:13:34;;;;;;;0.50;0.30;;;;;;;15.95;100.00;99165.69;5018893;28;20783;-82
2023/07/31 02:16:01;;;;;;;0.63;0.25;;;;;;;15.96;100.00;99178.81;5021989;28;20117;-83
2023/07/31 02:18:27;;;;;;;2.88;0.20;;;;;;;15.96;100.00;99176.13;5024588;28;20045;-82
2023/07/31 02:20:52;;;;;;;0.50;0.22;;;;;;;15.95;100.00;99179.03;5016375;28;20112;-82
2023/07/31 02:23:19;;;;;;;0.60;0.30;;;;;;;15.95;100.00;99179.84;5012016;28;20034;-83
2023/07/31 02:25:45;;;;;;;0.77;0.30;;;;;;;15.96;100.00;99176.13;5028353;28;20025;-82
2023/07/31 02:28:11;;;;;;;1.98;0.28;;;;;;;15.97;100.00;99169.81;5026440;28;20052;-80
2023/07/31 02:30:37;;;;;;;1.65;0.40;;;;;;;15.96;100.00;99165.47;5009382;28;20133;-81
2023/07/31 02:33:04;;;;;;;1.38;0.50;;;;;;;15.95;100.00;99160.38;5017596;28;20060;-80
2023/07/31 02:35:30;;;;;;;1.10;0.30;;;;;;;15.92;100.00;99166.94;5031581;28;20400;-80
2023/07/31 02:37:56;;;;;;;0.77;0.40;;;;;;;15.90;100.00;99160.16;5011132;28;20025;-82
2023/07/31 02:40:22;;;;;;;2.35;0.30;;;;;;;15.87;100.00;99153.44;5007637;28;20038;-82
2023/07/31 02:42:48;;;;;;;0.77;0.40;;;;;;;15.88;100.00;99155.88;5014377;28;20099;-81
2023/07/31 02:45:14;;;;;;;0.73;0.40;;;;;;;15.88;100.00;99163.06;5028376;28;20391;-80
2023/07/31 02:47:41;;;;;;;1.17;0.40;;;;;;;15.84;100.00;99157.34;5030241;28;20046;-83
2023/07/31 02:50:07;;;;;;;1.00;0.40;;;;;;;15.82;100.00;99162.06;5024183;28;20030;-82
2023/07/31 02:52:32;;;;;;;0.98;0.30;;;;;;;15.83;100.00;99165.56;5044293;28;20042;-82
2023/07/31 02:54:58;;;;;;;1.90;0.50;;;;;;;15.80;100.00;99157.97;4998785;28;20041;-83
2023/07/31 02:57:24;;;;;;;2.63;0.50;;;;;;;15.82;100.00;99166.56;5006910;28;20037;-83
2023/07/31 02:59:50;;;;;;;1.70;0.60;;;;;;;15.81;100.00;99159.59;5044848;28;20472;-82
2023/07/31 03:02:16;;;;;;;1.67;0.50;;;;;;;15.78;100.00;99158.19;4996579;28;20029;-82
2023/07/31 03:04:42;;;;;;;2.22;0.55;;;;;;;15.79;100.00;99153.66;5018838;28;20029;-82
2023/07/31 03:07:07;;;;;;;2.90;0.55;;;;;;;15.76;100.00;99149.59;5000008;28;20029;-82
2023/07/31 03:09:33;;;;;;;3.00;0.93;;;;;;;15.74;100.00;99139.13;5011526;28;20108;-82
2023/07/31 03:11:59;;;;;;;2.60;0.95;;;;;;;15.79;100.00;99133.19;5026162;28;20026;-82
2023/07/31 03:14:28;;;;;;;1.05;0.57;;;;;;;15.78;100.00;99120.06;5011621;28;20044;-83
2023/07/31 03:16:54;;;;;;;1.83;0.70;;;;;;;15.76;100.00;99117.63;5026316;28;20026;-82
2023/07/31 03:19:20;;;;;;;2.15;0.73;;;;;;;15.78;100.00;99123.56;5030595;28;20068;-83
2023/07/31 03:21:46;;;;;;;2.55;0.80;;;;;;;15.79;100.00;99113.69;5029578;28;20484;-82
2023/07/31 03:24:14;;;;;;;2.55;0.88;;;;;;;15.81;100.00;99116.97;4985706;28;20476;-83
2023/07/31 03:26:41;;;;;;;2.45;0.95;;;;;;;15.79;100.00;99108.38;5022414;28;20041;-83
2023/07/31 03:29:07;;;;;;;2.90;0.75;;;;;;;15.78;100.00;99091.59;5022113;28;20042;-83
2023/07/31 03:31:33;;;;;;;5.00;1.13;;;;;;;15.75;100.00;99087.47;5029819;28;20033;-82
2023/07/31 03:34:00;;;;;;;4.43;1.10;;;;;;;15.75;100.00;99094.69;5026398;28;20026;-81
2023/07/31 03:36:26;;;;;;;4.47;1.00;;;;;;;15.74;100.00;99103.69;5028459;28;20037;-82
2023/07/31 03:38:53;;;;;;;2.33;0.90;;;;;;;15.73;100.00;99120.69;5046638;28;20029;-82
2023/07/31 03:41:18;;;;;;;3.92;1.27;;;;;;;15.74;100.00;99119.66;5028770;28;20037;-82
2023/07/31 03:43:48;;;;;;;8.20;2.13;;;;;;;15.73;100.00;99108.22;5030695;28;20084;-80
2023/07/31 03:46:13;;;;;;;6.55;2.08;;;;;;;15.72;100.00;99119.03;5023630;28;20112;-81
2023/07/31 03:48:39;;;;;;;4.65;1.42;;;;;;;15.70;100.00;99113.94;5006148;28;20041;-82
2023/07/31 03:51:05;;;;;;;7.25;1.70;;;;;;;15.66;100.00;99118.06;5024207;28;20045;-82
2023/07/31 03:53:31;;;;;;;8.85;2.38;;;;;;;15.65;100.00;99099.63;5014029;28;20525;-83
2023/07/31 03:55:57;;;;;;;6.20;1.90;;;;;;;15.65;100.00;99092.47;5013745;28;20149;-83
2023/07/31 03:58:22;;;;;;;9.38;2.45;;;;;;;15.66;100.00;99106.56;4996291;28;20037;-81
2023/07/31 04:00:48;;;;;;;12.18;2.97;;;;;;;15.62;100.00;99108.88;5010636;28;20038;-80
2023/07/31 04:03:14;;;;;;;11.80;2.75;;;;;;;15.62;100.00;99099.00;5026431;28;20033;-83
2023/07/31 04:05:40;;;;;;;8.77;2.85;;;;;;;15.59;100.00;99104.75;5027684;28;20030;-82
2023/07/31 04:08:06;;;;;;;11.10;2.92;;;;;;;15.58;100.00;99118.28;5025779;28;20030;-82
2023/07/31 04:10:33;;;;;;;11.70;2.92;;;;;;;15.58;100.00;99110.28;5024023;28;20655;-82
2023/07/31 04:13:02;;;;;;;14.52;3.47;;;;;;;15.58;100.00;99115.63;5021006;28;20037;-82
2023/07/31 04:15:28;;;;;;;13.55;3.38;;;;;;;15.56;100.00;99110.50;5021699;28;20480;-82
2023/07/31 04:17:54;;;;;;;11.07;2.75;;;;;;;15.57;100.00;99120.16;5029503;28;20156;-82
2023/07/31 04:20:19;;;;;;;6.95;2.63;;;;;;;15.56;100.00;99125.69;5028024;28;20033;-82
2023/07/31 04:22:45;;;;;;;12.93;3.35;;;;;;;15.55;100.00;99132.03;5034404;28;20042;-82
2023/07/31 04:25:11;;;;;;;13.18;3.08;;;;;;;15.56;100.00;99133.69;5025418;28;20116;-82
2023/07/31 04:27:37;;;;;;;11.73;2.80;;;;;;;15.54;100.00;99141.03;5025781;28;20040;-82
2023/07/31 04:30:03;;;;;;;17.33;3.70;;;;;;;15.56;100.00;99147.00;5020889;28;20415;-82
2023/07/31 04:32:29;;;;;;;12.23;3.50;;;;;;;15.55;100.00;99166.63;5008863;28;20030;-82
2023/07/31 04:34:55;;;;;;;10.93;2.85;;;;;;;15.52;100.00;99159.91;5020800;28;20087;-82
2023/07/31 04:37:21;;;;;;;17.42;2.88;;;;;;;15.53;100.00;99160.72;5025946;28;20057;-83
2023/07/31 04:39:47;;;;;;;13.63;3.03;;;;;;;15.52;100.00;99157.25;5044441;28;20430;-83
2023/07/31 04:42:13;;;;;;;8.57;2.63;;;;;;;15.50;100.00;99170.75;5011000;28;20033;-82
2023/07/31 04:44:38;;;;;;;9.52;2.92;;;;;;;15.51;100.00;99171.59;5023045;28;20045;-81
2023/07/31 04:47:04;;;;;;;8.55;2.83;;;;;;;15.54;100.00;99159.69;5027931;28;20120;-80
2023/07/31 04:49:32;;;;;;;4.80;2.45;;;;;;;15.57;100.00;99180.56;5006662;28;20057;-83
2023/07/31 04:51:58;;;;;;;8.38;2.42;;;;;;;15.52;100.00;99175.88;5019162;28;20033;-82
2023/07/31 04:54:24;;;;;;;5.43;2.03;;;;;;;15.50;100.00;99170.75;5028877;28;20385;-82
2023/07/31 04:56:49;;;;;;;5.88;1.88;;;;;;;15.53;100.00;99160.72;5027725;28;20044;-83
2023/07/31 04:59:15;;;;;;;5.93;1.90;;;;;;;15.51;100.00;99168.94;5007386;28;20066;-82
2023/07/31 05:01:41;;;;;;;7.20;2.33;;;;;;;15.52;100.00;99148.41;5022164;28;20076;-82
2023/07/31 05:04:07;;;;;;;7.50;2.10;;;;;;;15.49;100.00;99149.66;5028196;28;20029;-83
2023/07/31 05:06:33;;;;;;;5.97;1.90;;;;;;;15.48;100.00;99151.50;5029052;28;20029;-82
2023/07/31 05:08:58;;;;;;;5.70;1.90;;;;;;;15.47;100.00;99147.22;5012169;28;20116;-83
2023/07/31 05:11:24;;;;;;;6.03;1.88;;;;;;;15.47;100.00;99141.88;4994817;28;20048;-83
2023/07/31 05:13:50;;;;;;;8.10;1.92;;;;;;;15.46;100.00;99140.25;5028469;28;20038;-83
2023/07/31 05:16:16;;;;;;;10.85;2.22;;;;;;;15.45;100.00;99140.47;5009538;28;20056;-82
2023/07/31 05:18:41;;;;;;;12.82;2.60;;;;;;;15.47;100.00;99138.41;5025180;28;20053;-82
2023/07/31 05:21:07;;;;;;;9.63;2.08;;;;;;;15.47;100.00;99133.06;4999088;28;20467;-83
2023/07/31 05:23:33;;;;;;;8.75;2.40;;;;;;;15.47;100.00;99138.41;5009964;28;20029;-83
2023/07/31 05:26:04;;;;;;;7.63;1.80;;;;;;;15.46;100.00;99134.94;5010055;28;20029;-82
2023/07/31 05:28:30;;;;;;;6.10;2.25;;;;;;;15.43;100.00;99126.53;5027749;28;20033;-82
2023/07/31 05:31:03;;;;;;;8.90;1.80;;;;;;;15.39;100.00;99131.44;5041863;28;20037;-82
2023/07/31 05:33:29;;;;;;;5.63;1.88;;;;;;;15.33;100.00;99124.31;5021950;28;20495;-82
2023/07/31 05:35:55;;;;;;;9.23;2.47;;;;;;;15.27;100.00;99131.28;5010090;28;20052;-82
2023/07/31 05:38:21;;;;;;;8.90;2.13;;;;;;;15.20;100.00;99141.94;5027007;28;20075;-82
2023/07/31 05:40:47;;;;;;;5.95;1.85;;;;;;;15.18;100.00;99143.19;5009475;28;20050;-82
2023/07/31 05:43:13;;;;;;;7.22;1.75;;;;;;;15.11;100.00;99114.72;5010558;28;20029;-82
2023/07/31 05:45:40;;;;;;;8.60;2.25;;;;;;;15.11;100.00;99122.69;5011748;28;20033;-83
2023/07/31 05:48:06;;;;;;;8.05;1.80;;;;;;;15.12;100.00;99124.34;5023370;28;20125;-81
2023/07/31 05:50:32;;;;;;;8.88;1.95;;;;;;;15.10;100.00;99131.72;5035976;28;20029;-82
2023/07/31 05:52:57;;;;;;;11.43;1.80;;;;;;;15.04;100.00;99142.34;5005771;28;20033;-82
2023/07/31 05:55:26;;;;;;;11.57;1.80;;;;;;;15.04;100.00;99142.34;5010995;28;20033;-82
2023/07/31 05:57:53;;;;;;;4.70;1.58;;;;;;;15.02;100.00;99145.22;5012421;28;20029;-83
2023/07/31 06:00:18;;;;;;;6.55;1.58;;;;;;;15.00;100.00;99144.63;5016983;28;20499;-83
2023/07/31 06:02:44;;;;;;;6.03;1.67;;;;;;;15.00;100.00;99147.28;5063780;28;20033;-82
2023/07/31 06:05:10;;;;;;;7.38;1.58;;;;;;;14.99;100.00;99142.97;5031930;28;20029;-83
2023/07/31 06:07:36;;;;;;;7.07;1.80;;;;;;;15.02;100.00;99142.56;5056136;28;20505;-83
2023/07/31 06:10:05;;;;;;;3.83;1.55;;;;;;;15.05;100.00;99146.69;4995385;28;20052;-83
2023/07/31 06:12:33;;;;;;;6.03;1.73;;;;;;;15.05;100.00;99141.34;5010088;28;20052;-82
2023/07/31 06:14:59;;;;;;;5.75;1.35;;;;;;;15.04;100.00;99153.00;5030975;28;20420;-82
2023/07/31 06:17:26;;;;;;;5.57;1.63;;;;;;;15.04;100.00;99150.34;5017002;28;20060;-82
2023/07/31 06:19:52;;;;;;;4.75;1.50;;;;;;;15.05;100.00;99150.13;5017322;28;20029;-82
2023/07/31 06:22:18;;;;;;;4.05;1.20;;;;;;;15.06;100.00;99138.47;5018276;28;20075;-83
2023/07/31 06:24:44;;;;;;;4.68;1.10;;;;;;;15.04;100.00;99135.19;5030710;28;20040;-82
2023/07/31 06:27:11;;;;;;;6.35;1.27;;;;;;;15.05;100.00;99144.00;5033274;28;20037;-82
2023/07/31 06:29:36;;;;;;;5.82;1.08;;;;;;;15.02;100.00;99142.56;5013318;28;20454;-82
2023/07/31 06:32:03;;;;;;;7.45;1.38;;;;;;;14.97;100.00;99148.50;5029582;28;20059;-82
2023/07/31 06:34:29;;;;;;;5.38;1.42;;;;;;;14.94;100.00;99137.47;5010077;28;20044;-82
2023/07/31 06:36:58;;;;;;;9.30;1.92;;;;;;;14.94;100.00;99146.25;5032092;28;20029;-82
2023/07/31 06:39:24;;;;;;;11.93;1.60;;;;;;;14.90;100.00;99146.88;5050896;28;20478;-82
2023/07/31 06:41:50;;;;;;;11.93;2.45;;;;;;;14.84;100.00;99144.00;5017086;28;20033;-82
2023/07/31 06:44:16;;;;;;;11.23;1.92;;;;;;;14.83;100.00;99122.91;5041560;28;20053;-82
2023/07/31 06:46:42;;;;;;;12.88;2.17;;;;;;;14.82;100.00;99143.41;5009889;28;20593;-82
2023/07/31 06:49:08;;;;;;;9.15;1.73;;;;;;;14.81;100.00;99133.78;4997743;28;20033;-82
2023/07/31 06:51:35;;;;;;;15.35;2.60;;;;;;;14.83;100.00;99133.56;5000716;28;20043;-82
2023/07/31 06:54:01;;;;;;;11.98;2.22;;;;;;;14.84;100.00;99151.19;5033955;28;20051;-83
2023/07/31 06:56:27;;;;;;;11.15;2.63;;;;;;;14.84;100.00;99151.97;5049393;28;20029;-82
2023/07/31 06:58:53;;;;;;;20.95;2.95;;;;;;;14.86;100.00;99143.78;5017083;28;20042;-82
2023/07/31 07:01:19;;;;;;;11.32;2.03;;;;;;;14.88;100.00;99149.72;5032690;28;20021;-82
2023/07/31 07:03:44;;;;;;;16.10;2.90;;;;;;;14.87;100.00;99138.25;5029550;28;20033;-82
2023/07/31 07:06:10;;;;;;;13.68;2.75;;;;;;;14.87;100.00;99129.50;5015055;28;20033;-82
2023/07/31 07:08:36;;;;;;;16.05;2.88;;;;;;;14.87;100.00;99137.47;5029021;28;20719;-82
2023/07/31 07:11:02;;;;;;;15.68;2.30;;;;;;;14.90;100.00;99145.03;5017927;28;20100;-83
2023/07/31 07:13:28;;;;;;;18.08;3.10;;;;;;;14.90;100.00;99125.59;5016778;28;20421;-83
2023/07/31 07:15:54;;;;;;;19.15;3.30;;;;;;;14.88;100.00;99125.78;5018132;28;20040;-82
2023/07/31 07:18:20;;;;;;;16.92;3.45;;;;;;;14.85;100.00;99124.38;5045925;28;20395;-82
2023/07/31 07:20:49;;;;;;;18.67;3.28;;;;;;;14.84;100.00;99129.91;5032029;28;20029;-81
2023/07/31 07:23:15;;;;;;;14.15;3.53;;;;;;;14.84;100.00;99135.22;5047786;28;20021;-82
2023/07/31 07:25:42;;;;;;;20.90;3.20;;;;;;;14.84;100.00;99137.88;5016257;28;20632;-82
2023/07/31 07:28:08;;;;;;;14.38;3.65;;;;;;;14.86;100.00;99125.16;5031051;28;20116;-82
2023/07/31 07:30:34;;;;;;;22.10;4.40;;;;;;;14.86;100.00;99125.16;5032087;28;20163;-82
2023/07/31 07:33:00;;;;;;;23.10;3.90;;;;;;;14.87;100.00;99118.84;5032902;28;20024;-82
2023/07/31 07:35:26;;;;;;;18.25;3.53;;;;;;;14.89;100.00;99130.09;5021938;28;20025;-82
2023/07/31 07:37:52;;;;;;;18.08;3.15;;;;;;;14.90;100.00;99129.06;5017389;28;20043;-81
2023/07/31 07:40:17;;;;;;;20.50;3.50;;;;;;;14.92;100.00;99135.03;5035240;28;20032;-82
2023/07/31 07:42:43;;;;;;;16.35;3.15;;;;;;;14.95;100.00;99139.94;5039090;28;20032;-82
2023/07/31 07:45:09;;;;;;;24.33;3.50;;;;;;;14.94;100.00;99153.44;5033068;28;20043;-82
2023/07/31 07:47:35;;;;;;;17.10;3.13;;;;;;;14.95;100.00;99147.91;5028458;28;20431;-82
2023/07/31 07:50:01;;;;;;;14.18;2.75;;;;;;;14.92;100.00;99150.97;5049809;28;20541;-81
2023/07/31 07:52:27;;;;;;;20.30;3.75;;;;;;;14.94;100.00;99148.13;5013191;28;20448;-82
2023/07/31 07:54:53;;;;;;;17.25;3.15;;;;;;;14.95;100.00;99139.09;5013410;28;20033;-82
2023/07/31 07:57:19;;;;;;;18.98;3.00;;;;;;;14.94;100.00;99135.63;5032530;28;20367;-82
2023/07/31 07:59:45;;;;;;;19.25;3.03;;;;;;;14.94;100.00;99122.31;5049204;28;20497;-82
2023/07/31 08:02:11;;;;;;;23.83;3.90;;;;;;;14.96;100.00;99112.28;5001148;28;20037;-83
2023/07/31 08:04:37;;;;;;;20.30;3.72;;;;;;;14.99;100.00;99117.19;4953800;28;20052;-82
2023/07/31 08:07:03;;;;;;;13.65;2.97;;;;;;;15.04;100.00;99121.06;5012653;28;20040;-82
2023/07/31 08:09:29;;;;;;;16.92;2.78;;;;;;;15.07;100.00;99133.97;5029629;28;20574;-82
2023/07/31 08:11:57;;;;;;;12.95;2.92;;;;;;;15.07;100.00;99136.63;5016686;28;20083;-82
2023/07/31 08:14:22;;;;;;;12.98;2.60;;;;;;;15.07;100.00;99131.28;5030644;28;20120;-82
2023/07/31 08:16:48;;;;;;;15.15;2.78;;;;;;;15.09;100.00;99123.94;5013276;28;20037;-83
2023/07/31 08:19:14;;;;;;;16.25;3.35;;;;;;;15.12;100.00;99126.19;5021760;28;20124;-80
2023/07/31 08:21:40;;;;;;;21.63;4.38;;;;;;;15.14;100.00;99132.13;5023974;28;20034;-81
2023/07/31 08:24:05;;;;;;;16.13;3.40;;;;;;;15.16;100.00;99115.94;5023902;28;20037;-82
2023/07/31 08:26:32;;;;;;;21.52;2.90;;;;;;;15.18;100.00;99117.38;5028039;28;20447;-82
2023/07/31 08:28:58;;;;;;;14.85;3.55;;;;;;;15.23;100.00;99122.88;5025167;28;20083;-82
2023/07/31 08:31:24;;;;;;;17.67;3.20;;;;;;;15.30;100.00;99128.22;5023678;28;20450;-83
2023/07/31 08:33:50;;;;;;;13.40;2.53;;;;;;;15.32;100.00;99125.34;5022501;28;20120;-83
2023/07/31 08:36:16;;;;;;;15.05;2.90;;;;;;;15.33;100.00;99129.63;5026124;28;20120;-82
2023/07/31 08:38:41;;;;;;;13.85;2.72;;;;;;;15.34;100.00;99133.91;4994148;28;20079;-83
2023/07/31 08:41:07;;;;;;;12.80;2.67;;;;;;;15.38;100.00;99137.81;5003119;28;20119;-83
2023/07/31 08:43:33;;;;;;;16.80;3.42;;;;;;;15.42;100.00;99136.34;5005917;28;20697;-82
2023/07/31 08:46:00;;;;;;;14.05;2.88;;;;;;;15.45;100.00;99138.59;5019679;28;20033;-82
2023/07/31 08:48:27;;;;;;;19.05;3.15;;;;;;;15.41;100.00;99126.75;5044827;28;20045;-82
2023/07/31 08:50:53;;;;;;;9.88;2.55;;;;;;;15.40;100.00;99135.75;5024792;28;20559;-83
2023/07/31 08:53:19;;;;;;;10.15;2.17;;;;;;;15.39;100.00;99128.78;5010194;28;20034;-83
2023/07/31 08:55:45;;;;;;;11.70;2.70;;;;;;;15.36;100.00;99130.03;5021730;28;20045;-82
2023/07/31 08:58:13;;;;;;;12.57;3.17;;;;;;;15.38;100.00;99133.28;4997918;28;20041;-82
2023/07/31 09:00:40;;;;;;;17.83;2.75;;;;;;;15.36;100.00;99115.91;5019032;28;20029;-81
2023/07/31 09:03:12;;;;;;;10.13;2.42;;;;;;;15.38;100.00;99117.31;5006329;28;20113;-82
2023/07/31 09:05:43;;;;;;;17.40;2.95;;;;;;;15.38;100.00;99122.63;5010206;28;20633;-81
2023/07/31 09:08:10;;;;;;;11.30;2.38;;;;;;;15.37;100.00;99134.31;5011780;28;20041;-81
2023/07/31 09:10:41;;;;;;;16.80;2.63;;;;;;;15.37;100.00;99133.50;5024583;28;20044;-82
2023/07/31 09:13:08;;;;;;;18.67;3.13;;;;;;;15.36;100.00;99127.38;5023967;28;20052;-81
2023/07/31 09:15:35;;;;;;;16.25;3.40;;;;;;;15.34;100.00;99132.06;5021240;28;20030;-81
2023/07/31 09:18:02;;;;;;;13.25;3.55;;;;;;;15.34;100.00;99131.25;5024264;28;20124;-81
2023/07/31 09:20:28;;;;;;;17.83;2.80;;;;;;;15.35;100.00;99125.72;5035384;28;20040;-81
2023/07/31 09:22:55;;;;;;;14.18;2.47;;;;;;;15.40;100.00;99103.78;5008139;28;20038;-81
2023/07/31 09:25:26;;;;;;;18.00;3.63;;;;;;;15.46;100.00;99099.50;5021286;28;20101;-81
2023/07/31 09:27:57;;;;;;;13.70;2.50;;;;;;;15.50;100.00;99104.19;5011653;28;20038;-81
2023/07/31 09:30:23;;;;;;;15.25;3.13;;;;;;;15.49;100.00;99107.06;5019251;28;20037;-82
2023/07/31 09:32:50;;;;;;;10.55;2.53;;;;;;;15.52;100.00;99100.47;4993432;28;20029;-81
2023/07/31 09:35:20;;;;;;;8.82;2.38;;;;;;;15.56;100.00;99104.38;5026729;28;20033;-81
2023/07/31 09:37:55;;;;;;;12.77;2.80;;;;;;;15.59;100.00;99104.75;5022767;28;20037;-81
2023/07/31 09:40:38;;;;;;;15.55;3.25;;;;;;;15.59;100.00;99102.09;5005248;28;20041;-81
2023/07/31 09:43:07;;;;;;;14.00;2.83;;;;;;;15.60;100.00;99106.41;5006878;28;20029;-81
2023/07/31 09:45:41;;;;;;;12.82;2.55;;;;;;;15.66;100.00;99118.06;5015270;28;20142;-81
2023/07/31 09:48:09;;;;;;;13.50;2.10;;;;;;;15.63;100.00;99108.66;5026849;28;20034;-81
2023/07/31 09:50:39;;;;;;;14.07;2.55;;;;;;;15.70;100.00;99110.47;5012956;28;20034;-81
2023/07/31 09:53:07;;;;;;;12.85;2.65;;;;;;;15.76;100.00;99101.63;5026372;28;20034;-82
2023/07/31 09:55:33;;;;;;;15.30;3.90;;;;;;;15.85;100.00;99094.19;5025503;28;20092;-81
2023/07/31 09:58:02;;;;;;;7.55;2.00;;;;;;;15.91;100.00;99101.34;5013956;28;20089;-81
2023/07/31 10:00:30;;;;;;;9.30;1.75;;;;;;;16.00;100.00;99096.63;5026497;28;20029;-81
2023/07/31 10:03:00;;;;;;;10.80;1.98;;;;;;;16.07;100.00;99096.59;5024183;28;20120;-81
2023/07/31 10:05:38;;;;;;;9.75;2.70;;;;;;;16.15;100.00;99100.84;5023544;28;20033;-81
2023/07/31 10:08:06;;;;;;;9.57;2.30;;;;;;;16.18;100.00;99098.56;5047714;28;20479;-81
2023/07/31 10:10:35;;;;;;;8.20;1.85;;;;;;;16.27;100.00;99108.97;5029143;28;20034;-81
2023/07/31 10:13:02;;;;;;;9.82;2.20;;;;;;;16.26;100.00;99099.34;5028297;28;20034;-81
2023/07/31 10:15:29;;;;;;;8.50;1.88;;;;;;;16.21;100.00;99098.13;5028938;28;20041;-80
2023/07/31 10:17:56;;;;;;;7.30;1.48;;;;;;;16.20;100.00;99101.84;5029666;28;20044;-81
2023/07/31 10:20:22;;;;;;;6.95;1.88;;;;;;;16.19;100.00;99110.03;5050330;28;20037;-81
2023/07/31 10:22:49;;;;;;;9.70;1.92;;;;;;;16.21;100.00;99106.13;5028879;28;20028;-81
2023/07/31 10:25:16;;;;;;;12.73;2.33;;;;;;;16.23;100.00;99106.72;5024477;28;20024;-81
2023/07/31 10:27:42;;;;;;;11.15;2.00;;;;;;;16.21;100.00;99102.66;5046566;28;20037;-81
2023/07/31 10:30:15;;;;;;;12.75;2.25;;;;;;;16.21;100.00;99100.00;4994721;28;20049;-81
2023/07/31 10:32:43;;;;;;;7.30;1.60;;;;;;;16.20;100.00;99101.00;5028920;28;20038;-81
2023/07/31 10:35:10;;;;;;;9.05;1.60;;;;;;;16.30;100.00;99098.69;5051234;28;20041;-80
2023/07/31 10:37:37;;;;;;;8.85;1.90;;;;;;;16.40;100.00;99092.06;5029169;28;20048;-82
2023/07/31 10:40:16;;;;;;;11.32;2.13;;;;;;;16.48;100.00;99095.28;5032719;28;20419;-82
2023/07/31 10:42:45;;;;;;;9.52;2.17;;;;;;;16.50;100.00;99087.06;5056449;28;20029;-80
2023/07/31 10:45:11;;;;;;;12.52;2.20;;;;;;;16.63;100.00;99080.81;5032459;28;20163;-80
2023/07/31 10:47:45;;;;;;;7.13;1.30;;;;;;;16.74;100.00;99080.09;5027343;28;20558;-80
2023/07/31 10:50:12;;;;;;;7.05;1.73;;;;;;;16.83;100.00;99091.28;5052722;28;20064;-80
2023/07/31 10:52:38;;;;;;;8.52;1.85;;;;;;;16.88;100.00;99073.81;5014365;28;20044;-82
2023/07/31 10:55:23;;;;;;;6.47;1.42;;;;;;;16.97;100.00;99080.50;5010605;28;20097;-81
2023/07/31 10:57:49;;;;;;;9.52;1.73;;;;;;;17.01;100.00;99067.53;5026991;28;20135;-81
2023/07/31 11:00:20;;;;;;;4.72;1.60;;;;;;;17.21;100.00;99054.84;5026048;28;20029;-81
2023/07/31 11:03:04;;;;;;;9.50;2.03;;;;;;;17.42;100.00;99060.75;5009642;28;20183;-81
2023/07/31 11:05:53;;;;;;;8.25;2.05;;;;;;;17.56;100.00;99061.41;5006703;28;20493;-81
2023/07/31 11:08:26;;;;;;;14.07;2.42;;;;;;;17.67;100.00;99059.00;5013005;28;20370;-82
2023/07/31 11:11:01;;;;;;;10.85;1.80;;;;;;;17.69;100.00;99055.09;5011676;28;20068;-82
2023/07/31 11:13:43;;;;;;;10.77;2.13;;;;;;;17.65;100.00;99053.88;5035478;28;20041;-82
2023/07/31 11:16:10;;;;;;;6.50;1.75;;;;;;;17.61;100.00;99045.50;5011637;28;20466;-82
2023/07/31 11:18:40;;;;;;;6.88;2.08;;;;;;;17.63;100.00;99049.81;5026372;28;20049;-82
2023/07/31 11:21:07;;;;;;;9.48;1.90;;;;;;;17.55;100.00;99053.63;5003807;28;20414;-82